Sarcobatus Flat, Nevada Weather observations

Data are for observation ending at time listed.
 Day   Time    Ave.   Ave.  Ave.  Vector   Max.   Stn.    Total    Solar   Ave.  
  of    of     Air    Rel.  Wind   Wind    Wind   Baro.  Precip.   Rad.    Soil  
Year   Day     Temp.  Hum.  Speed  Dir.    Gust   Pres.                    Temp. 
2015   (PST)    F      %     mph   deg.    mph     mb.     in.     W/m2     F   
------------------------------------------------------------------------------
 109   22:50   55.4    11    8.4   346     10.7   875.0    0.00       0    999.0
 109   23:00   54.3    11    7.9   344      9.9   875.1    0.00       0    999.0
 109   23:10   52.9    11    5.5   341      7.2   875.2    0.00       0    999.0
 109   23:20   51.8    12    3.6   357      5.4   875.2    0.00       0    999.0
 109   23:30   53.2    11    4.7     5      6.6   875.3    0.00       0    999.0
 109   23:40   54.4    11    5.7     4      8.8   875.2    0.00       0    999.0
 109   23:50   53.7    11    6.1   356      8.2   875.2    0.00       0    999.0
 110    0:00   56.0    10    7.3     3     12.4   875.1    0.00       0    999.0
 110    0:10   58.1    10    9.7   346     12.6   875.0    0.00       0    999.0
 110    0:20   57.6    10    9.0   344     11.8   875.0    0.00       0    999.0
 110    0:30   59.0     9   10.2   342     18.4   875.0    0.00       0    999.0
 110    0:40   58.8     9   10.1   338     12.6   875.0    0.00       0    999.0
 110    0:50   55.9    10    7.0     0     10.3   875.0    0.00       0    999.0
 110    1:00   55.9    10    9.1     3     16.1   874.9    0.00       0    999.0
 110    1:10   59.0     9   13.7   345     19.0   874.9    0.00       0    999.0
 110    1:20   58.1     9   10.4   330     14.0   875.0    0.00       0    999.0
 110    1:30   55.9    10    7.7   337     11.3   875.1    0.00       0    999.0
 110    1:40   54.4    11    6.7   333      8.2   875.1    0.00       0    999.0
 110    1:50   52.7    11    6.9   352      9.0   875.1    0.00       0    999.0
 110    2:00   53.3    12    5.8   360      9.8   875.1    0.00       0    999.0
 110    2:10   55.1    12    4.9   357      7.2   875.2    0.00       0    999.0
 110    2:20   55.8    12    5.6   350      8.1   875.2    0.00       0    999.0
 110    2:30   53.1    12    6.0   311      7.5   875.2    0.00       0    999.0
 110    2:40   52.0    12    5.9   315      7.5   875.3    0.00       0    999.0
 110    2:50   51.1    13    4.6   337      6.6   875.3    0.00       0    999.0
 110    3:00   50.2    13    3.4   329      6.7   875.3    0.00       0    999.0
 110    3:10   47.3    15    3.6   301      6.6   875.2    0.00       0    999.0
 110    3:20   45.7    16    3.5   328      5.8   875.3    0.00       0    999.0
 110    3:30   47.0    15    2.5   345      4.9   875.3    0.00       0    999.0
 110    3:40   47.5    15    4.0   336      6.6   875.2    0.00       0    999.0
 110    3:50   47.2    15    3.7   346      7.0   875.2    0.00       0    999.0
 110    4:00   45.8    16    1.0   123      3.2   875.3    0.00       0    999.0
 110    4:10   45.2    16    0.7     0      2.9   875.3    0.00       0    999.0
 110    4:20   44.2    17    2.1   275      6.3   875.4    0.00       0    999.0
 110    4:30   46.3    16    7.0   314      9.1   875.3    0.00       0    999.0
 110    4:40   45.7    17    8.1   317     10.2   875.3    0.00       0    999.0
 110    4:50   44.6    17    9.4   317     11.8   875.4    0.00       0    999.0
 110    5:00   45.7    17    7.8   319     10.0   875.4    0.00       1    999.0
 110    5:10   47.4    15    6.8   317     10.4   875.4    0.00       3    999.0
 110    5:20   48.5    15    3.2    43      8.4   875.6    0.00      10    999.0
 110    5:30   47.7    15    2.3    17      3.3   875.7    0.00      19    999.0
 110    5:40   46.9    16    1.8   352      4.6   875.8    0.00      52    999.0
 110    5:50   46.3    17    4.5   322      6.9   875.9    0.00      78    999.0
 110    6:00   47.9    16    2.9    30      6.3   875.9    0.00     106    999.0
 110    6:10   50.1    15    0.9    28      3.1   876.0    0.00     144    999.0
 110    6:20   51.6    15    2.4   359      5.8   876.2    0.00     176    999.0
 110    6:30   54.1    14    3.5   331      5.8   876.2    0.00     211    999.0
 110    6:40   55.7    14    1.8   338      3.7   876.3    0.00     248    999.0
 110    6:50   56.7    14    1.7    89      4.2   876.4    0.00     282    999.0
 110    7:00   59.0    13    1.5    42      4.2   876.4    0.00     320    999.0
 110    7:10   60.1    13    2.4    10      6.4   876.4    0.00     356    999.0
 110    7:20   61.0    12    5.6   352      7.8   876.3    0.00     389    999.0
 110    7:30   62.6    11    5.1   337      7.2   876.3    0.00     427    999.0
 110    7:40   63.8    11    3.9   339      5.6   876.2    0.00     463    999.0
 110    7:50   64.9    11    3.1   337      5.3   876.2    0.00     502    999.0
 110    8:00   66.1    10    3.6   340      7.0   876.1    0.00     537    999.0
 110    8:10   66.4    10    4.5   332      8.3   876.1    0.00     569    999.0
 110    8:20   67.5    10    3.0   323      6.1   876.1    0.00     601    999.0
 110    8:30   68.2    10    2.7   330      6.6   876.0    0.00     634    999.0
 110    8:40   69.5    10    1.5     6      4.2   876.0    0.00     666    999.0
 110    8:50   70.8    10    1.8    11      4.2   875.9    0.00     696    999.0
 110    9:00   71.4     9    1.8   311      6.6   875.8    0.00     726    999.0
 110    9:10   71.9     9    2.5   154      6.8   875.8    0.00     753    999.0
 110    9:20   71.7     9    4.7   170      8.4   875.7    0.00     777    999.0
 110    9:30   72.3     9    4.2   110     13.4   875.7    0.00     803    999.0
 110    9:40   73.1     9    1.6     4      4.7   875.6    0.00     829    999.0
 110    9:50   73.6     9    2.4    89      5.0   875.5    0.00     847    999.0
 110   10:00   74.2     9    3.3    33      9.6   875.3    0.00     867    999.0
 110   10:10   74.7     8    3.5    48      8.3   875.2    0.00     887    999.0
 110   10:20   74.2     8    3.0   133      6.4   875.0    0.00     906    999.0
 110   10:30   75.2     8    3.5   123      8.3   874.8    0.00     923    999.0
 110   10:40   76.2     8    4.5    44     10.4   874.7    0.00     938    999.0
 110   10:50   76.6     8    3.4     6      9.3   874.7    0.00     948    999.0
 110   11:00   76.8     8    3.6   124      8.0   874.5    0.00     958    999.0
 110   11:10   77.2     8    3.9    47      8.2   874.3    0.00     967    999.0
 110   11:20   76.4     8    2.9    18      5.6   874.2    0.00     975    999.0
 110   11:30   77.3     8    2.5   358      6.3   874.1    0.00     985    999.0
 110   11:40   79.2     7    2.7   247      6.4   874.0    0.00     990    999.0
 110   11:50   78.4     8    6.7   246     11.0   873.8    0.00     992    999.0
 110   12:00   78.3     8    2.3   300      6.9   873.8    0.00     990    999.0
 110   12:10   78.7     8    3.8   357      7.8   873.7    0.00     987    999.0
 110   12:20   78.2     8    5.4   263     10.2   873.5    0.00     989    999.0
 110   12:30   78.5     8    7.8   239     15.4   873.5    0.00     983    999.0
 110   12:40   78.7     8    5.8   218     12.9   873.4    0.00     990    999.0
 110   12:50   79.0     8    7.3   192     16.2   873.3    0.00     984    999.0
 110   13:00   79.9     8    9.7   208     18.7   873.2    0.00    1000    999.0
 110   13:10   80.1     8    8.7   203     17.5   873.1    0.00     984    999.0
 110   13:20   79.5     8    7.8   167     18.3   873.0    0.00     949    999.0
 110   13:30   79.4     8    7.8   215     15.2   872.8    0.00     924    999.0
 110   13:40   79.5     8   10.0   164     20.0   872.6    0.00     901    999.0
 110   13:50   78.9     8    9.1   131     15.0   872.4    0.00     881    999.0
 110   14:00   80.7     7    9.5   226     16.5   872.3    0.00     858    999.0
 110   14:10   80.2     7    6.3   253     12.5   872.2    0.00     834    999.0
 110   14:20   79.3     7    4.2   298     12.6   872.1    0.00     813    999.0
 110   14:30   80.8     7    8.3   241     12.1   871.9    0.00     786    999.0
 110   14:40   79.4     7    7.8   314     12.3   871.8    0.00     755    999.0
 110   14:50   79.7     7    6.3   223     13.2   871.7    0.00     725    999.0
 110   15:00   80.3     7    8.2   219     14.3   871.5    0.00     700    999.0
 110   15:10   80.4     7    7.5   229     12.6   871.4    0.00     638    999.0
 110   15:20   79.7     7    6.6   248     12.7   871.4    0.00     514    999.0
 110   15:30   79.5     7    6.7   162     14.0   871.3    0.00     571    999.0
 110   15:40   79.4     7    8.5   160     14.2   871.2    0.00     591    999.0
 110   15:50   79.7     7    6.1   191     12.3   871.2    0.00     535    999.0
 110   16:00   80.1     7    6.1   246     12.1   871.1    0.00     505    999.0
 110   16:10   79.4     7    9.3   182     16.4   871.0    0.00     472    999.0
 110   16:20   79.5     7    6.7   234     11.2   871.0    0.00     437    999.0
 110   16:30   79.4     7    2.8   246      6.5   871.0    0.00     405    999.0
 110   16:40   79.5     7    5.8   196     10.6   870.9    0.00     371    999.0
 110   16:50   79.6     7    6.5   190     10.6   870.9    0.00     331    999.0
 110   17:00   79.1     7    6.1   172     11.3   870.8    0.00     293    999.0
 110   17:10   78.8     7    8.9   169     12.9   870.8    0.00     247    999.0
 110   17:20   78.2     7    8.2   174     11.4   870.8    0.00     202    999.0
 110   17:30   77.7     8   11.2   170     19.9   870.8    0.00     153    999.0
 110   17:40   76.3     9   16.0   174     24.0   870.9    0.00      56    999.0
 110   17:50   75.3     9   14.5   171     20.5   871.0    0.00      69    999.0
 110   18:00   74.8     9   11.6   172     15.0   871.1    0.00      51    999.0
 110   18:10   73.8    10    9.8   174     13.4   871.2    0.00      29    999.0
 110   18:20   72.7    10    9.5   170     12.7   871.3    0.00      11    999.0
 110   18:30   71.6    10    8.1   167     10.2   871.4    0.00       5    999.0
 110   18:40   70.6    10    6.7   166      9.9   871.4    0.00       1    999.0
 110   18:50   69.2    11    5.4   171      7.8   871.6    0.00       0    999.0
 110   19:00   67.4    11    4.7   164      5.6   871.7    0.00       0    999.0
 110   19:10   65.9    11    3.4   159      5.0   871.9    0.00       0    999.0
 110   19:20   63.9    12    0.2   157      1.3   872.0    0.00       0    999.0
 110   19:30   62.9    12    3.7   101      5.4   872.0    0.00       0    999.0
 110   19:40   62.7    12    4.2   105      5.0   872.1    0.00       0    999.0
 110   19:50   61.6    12    2.1   108      5.0   872.2    0.00       0    999.0
 110   20:00   59.3    13    1.3   306      3.3   872.4    0.00       0    999.0
 110   20:10   61.2    12    3.0    83      3.7   872.4    0.00       0    999.0
 110   20:20   61.0    12    4.7    90      5.4   872.5    0.00       0    999.0
 110   20:30   60.0    12    5.6    93      6.4   872.5    0.00       0    999.0
 110   20:40   59.0    13    5.4    88      6.6   872.6    0.00       0    999.0
 110   20:50   58.9    13    5.6    87      6.5   872.7    0.00       0    999.0
 110   21:00   59.2    13    5.3    86      6.2   872.7    0.00       0    999.0
 110   21:10   60.1    13    4.2    78      5.6   872.7    0.00       0    999.0
 110   21:20   60.0    12    4.1    75      5.6   872.7    0.00       0    999.0
 110   21:30   59.2    13    5.3    85      6.7   872.7    0.00       0    999.0
 110   21:40   57.8    13    6.7    92      8.3   872.6    0.00       0    999.0
 110   21:50   57.8    13    5.4    96      6.5   872.6    0.00       0    999.0
 110   22:00   56.9    14    5.0   107      5.9   872.7    0.00       0    999.0
 110   22:10   55.7    14    3.2   269      6.9   872.7    0.00       0    999.0
 110   22:20   56.1    15    2.5   254      5.7   872.8    0.00       0    999.0
 110   22:30   55.5    14    4.4   277      9.0   872.8    0.00       0    999.0
 110   22:40   51.3    16    5.4   308      7.5   872.9    0.00       0    999.0

Return to Sarcobatus Flat, Nevada graphs page.


Western Regional Climate Center,wrcc@dri.edu